createdAt,value
2022-08-05T00:00:51.909Z,97904.16
2022-08-05T00:01:53.605Z,97904.97
2022-08-05T00:02:55.428Z,97908.06
2022-08-05T00:03:57.544Z,97917.75
2022-08-05T00:04:59.167Z,97912.75
2022-08-05T00:06:06.539Z,97904.97
2022-08-05T00:07:58.775Z,97910.44
2022-08-05T00:08:44.418Z,97911.28
2022-08-05T00:09:48.977Z,97912.06
2022-08-05T00:10:50.602Z,97917.91
2022-08-05T00:11:56.054Z,97903.97
2022-08-05T00:13:01.555Z,97914.50
2022-08-05T00:14:12.730Z,97912.19
2022-08-05T00:15:56.020Z,97909.97
2022-08-05T00:16:52.486Z,97910.41
2022-08-05T00:17:55.298Z,97906.56
2022-08-05T00:18:57.184Z,97910.47
2022-08-05T00:20:02.714Z,97912.84
2022-08-05T00:21:06.826Z,97909.00
2022-08-05T00:22:11.150Z,97910.63
2022-08-05T00:23:13.359Z,97910.28
2022-08-05T00:24:18.953Z,97910.72
2022-08-05T00:25:25.965Z,97918.16
2022-08-05T00:26:51.740Z,97920.13
2022-08-05T00:27:53.840Z,97924.72
2022-08-05T00:28:56.856Z,97930.94
2022-08-05T00:29:59.080Z,97942.56
2022-08-05T00:31:05.583Z,97932.59
2022-08-05T00:32:12.532Z,97941.25
2022-08-05T00:34:42.406Z,97935.53
2022-08-05T00:34:54.423Z,97937.22
2022-08-05T00:36:16.185Z,97931.94
2022-08-05T00:37:23.351Z,97942.53
2022-08-05T00:38:28.890Z,97940.25
2022-08-05T00:39:37.096Z,97936.41
2022-08-05T00:40:51.895Z,97955.84
2022-08-05T00:41:55.726Z,97941.91
2022-08-05T00:42:59.024Z,97943.41
2022-08-05T00:44:01.566Z,97951.56
2022-08-05T00:45:05.153Z,97960.56
2022-08-05T00:46:10.139Z,97955.97
2022-08-05T00:47:12.152Z,97954.84
2022-08-05T00:48:16.122Z,97964.59
2022-08-05T00:49:17.625Z,97962.34
2022-08-05T00:50:20.938Z,97966.25
2022-08-05T00:51:50.235Z,97964.00
2022-08-05T00:52:45.515Z,97973.25
2022-08-05T00:54:00.765Z,97971.78
2022-08-05T00:55:04.942Z,97974.59
2022-08-05T00:56:07.982Z,97979.59
2022-08-05T00:57:09.829Z,97973.56
2022-08-05T00:58:12.208Z,97983.66
2022-08-05T00:59:14.804Z,97973.88
2022-08-05T01:00:16.993Z,97985.50
2022-08-05T01:01:24.958Z,97980.06
2022-08-05T01:02:40.221Z,97984.09
2022-08-05T01:03:42.326Z,97984.47
2022-08-05T01:04:44.321Z,97991.16
2022-08-05T01:05:54.650Z,97987.44
2022-08-05T01:06:56.533Z,97991.41
2022-08-05T01:08:40.291Z,97987.97
2022-08-05T01:09:20.032Z,97992.41
2022-08-05T01:10:28.649Z,97995.81
2022-08-05T01:11:37.451Z,97997.34
2022-08-05T01:12:54.361Z,98008.56
2022-08-05T01:14:15.324Z,98002.34
2022-08-05T01:15:36.256Z,98000.53
2022-08-05T01:16:54.360Z,98010.25
2022-08-05T01:18:03.080Z,98004.97
2022-08-05T01:19:56.334Z,98006.50
2022-08-05T01:21:08.857Z,98014.34
2022-08-05T01:22:42.995Z,98012.44
2022-08-05T01:23:58.080Z,98009.09
2022-08-05T01:25:17.662Z,98009.38
2022-08-05T01:26:53.938Z,98013.69
2022-08-05T01:28:55.219Z,98015.53
2022-08-05T01:30:02.175Z,98021.72
2022-08-05T01:31:22.872Z,98023.00
2022-08-05T01:32:30.901Z,98016.84
2022-08-05T01:33:48.898Z,98014.59
2022-08-05T01:35:03.080Z,98008.47
2022-08-05T01:36:16.646Z,98017.28
2022-08-05T01:37:25.589Z,98018.13
2022-08-05T01:38:30.015Z,98017.41
2022-08-05T01:39:46.030Z,98019.72
2022-08-05T01:40:49.945Z,98028.69
2022-08-05T01:41:55.517Z,98030.25
2022-08-05T01:43:00.883Z,98032.97
2022-08-05T01:44:09.997Z,98038.06
2022-08-05T01:45:16.662Z,98036.88
2022-08-05T01:46:42.792Z,98043.47
2022-08-05T01:47:43.677Z,98041.88
2022-08-05T01:48:49.807Z,98045.00
2022-08-05T01:50:01.475Z,98044.63
2022-08-05T01:51:08.692Z,98031.03
2022-08-05T01:52:17.969Z,98042.72
2022-08-05T01:53:54.621Z,98041.88
2022-08-05T01:54:52.921Z,98042.63
2022-08-05T01:56:00.023Z,98042.72
2022-08-05T01:58:29.945Z,98036.09
2022-08-05T01:58:45.111Z,98039.94
2022-08-05T01:59:54.657Z,98040.00
2022-08-05T02:00:58.474Z,98042.25
2022-08-05T02:02:01.415Z,98037.06
2022-08-05T02:03:29.130Z,98040.66
2022-08-05T02:04:36.520Z,98032.22
2022-08-05T02:05:44.927Z,98029.91
2022-08-05T02:06:50.628Z,98036.09
2022-08-05T02:08:00.101Z,98025.66
2022-08-05T02:09:03.905Z,98036.44
2022-08-05T02:10:07.900Z,98033.31
2022-08-05T02:11:15.735Z,98029.84
2022-08-05T02:12:40.785Z,98036.91
2022-08-05T02:13:53.538Z,98040.44
2022-08-05T02:15:25.539Z,98037.06
2022-08-05T02:16:44.337Z,98030.38
2022-08-05T02:18:31.857Z,98036.19
2022-08-05T02:19:24.366Z,98030.47
2022-08-05T02:20:38.992Z,98031.59
2022-08-05T02:21:49.149Z,98045.94
2022-08-05T02:22:57.422Z,98040.59
2022-08-05T02:24:04.236Z,98042.16
2022-08-05T02:25:14.193Z,98052.25
2022-08-05T02:26:21.977Z,98045.66
2022-08-05T02:27:30.181Z,98055.78
2022-08-05T02:28:48.646Z,98060.09
2022-08-05T02:29:58.186Z,98047.22
2022-08-05T02:31:23.275Z,98049.63
2022-08-05T02:32:30.540Z,98044.22
2022-08-05T02:33:38.440Z,98040.41
2022-08-05T02:34:41.672Z,98047.03
2022-08-05T02:35:57.486Z,98048.59
2022-08-05T02:37:05.004Z,98044.00
2022-08-05T02:38:09.335Z,98036.69
2022-08-05T02:39:12.815Z,98043.28
2022-08-05T02:40:17.027Z,98038.25
2022-08-05T02:41:20.681Z,98043.72
2022-08-05T02:42:26.147Z,98042.53
2022-08-05T02:43:30.814Z,98049.91
2022-08-05T02:44:38.389Z,98054.56
2022-08-05T02:45:52.519Z,98049.94
2022-08-05T02:47:00.142Z,98054.25
2022-08-05T02:48:12.303Z,98046.13
2022-08-05T02:49:16.186Z,98057.38
2022-08-05T02:50:18.680Z,98052.00
2022-08-05T02:51:28.237Z,98055.88
2022-08-05T02:52:46.659Z,98043.09
2022-08-05T02:53:49.619Z,98050.84
2022-08-05T02:54:57.654Z,98050.84
2022-08-05T02:56:02.217Z,98050.50
2022-08-05T02:57:10.452Z,98053.22
2022-08-05T02:58:30.587Z,98053.63
2022-08-05T02:59:34.606Z,98051.28
2022-08-05T03:00:50.821Z,98047.03
2022-08-05T03:01:54.444Z,98041.97
2022-08-05T03:02:57.750Z,98045.50
2022-08-05T03:04:11.850Z,98051.25
2022-08-05T03:05:16.843Z,98048.56
2022-08-05T03:06:54.482Z,98047.03
2022-08-05T03:08:04.537Z,98053.63
2022-08-05T03:09:11.368Z,98055.19
2022-08-05T03:10:24.587Z,98067.94
2022-08-05T03:11:55.561Z,98074.16
2022-08-05T03:12:48.401Z,98068.72
2022-08-05T03:14:03.076Z,98068.72
2022-08-05T03:15:09.216Z,98071.09
2022-08-05T03:16:10.960Z,98069.53
2022-08-05T03:17:17.321Z,98074.19
2022-08-05T03:18:29.821Z,98074.94
2022-08-05T03:19:34.300Z,98077.66
2022-08-05T03:20:38.638Z,98069.13
2022-08-05T03:21:50.147Z,98069.53
2022-08-05T03:22:53.053Z,98071.47
2022-08-05T03:23:57.791Z,98079.25
2022-08-05T03:25:11.668Z,98079.28
2022-08-05T03:26:31.733Z,98081.22
2022-08-05T03:27:58.905Z,98075.44
2022-08-05T03:28:56.093Z,98075.44
2022-08-05T03:30:07.594Z,98073.50
2022-08-05T03:31:10.805Z,98077.38
2022-08-05T03:32:20.565Z,98075.44
2022-08-05T03:33:22.665Z,98072.00
2022-08-05T03:34:34.263Z,98077.75
2022-08-05T03:35:41.022Z,98080.03
2022-08-05T03:36:43.322Z,98076.56
2022-08-05T03:37:46.650Z,98081.97
2022-08-05T03:38:53.439Z,98082.38
2022-08-05T03:39:58.936Z,98083.16
2022-08-05T03:41:03.972Z,98081.63
2022-08-05T03:42:12.438Z,98088.56
2022-08-05T03:43:58.307Z,98085.88
2022-08-05T03:44:36.365Z,98081.22
2022-08-05T03:45:58.082Z,98078.84
2022-08-05T03:47:00.509Z,98078.50
2022-08-05T03:48:05.504Z,98069.25
2022-08-05T03:49:09.512Z,98073.13
2022-08-05T03:50:12.555Z,98079.34
2022-08-05T03:52:36.906Z,98073.19
2022-08-05T03:55:06.751Z,98055.41
2022-08-05T03:55:54.023Z,98055.00
2022-08-05T03:56:10.830Z,98052.72
2022-08-05T03:57:20.703Z,98047.69
2022-08-05T03:58:27.158Z,98053.50
2022-08-05T03:59:54.461Z,98059.34
2022-08-05T04:00:59.989Z,98068.22
2022-08-05T04:02:03.000Z,98065.50
2022-08-05T04:03:08.100Z,98074.41
2022-08-05T04:04:21.236Z,98074.00
2022-08-05T04:05:23.824Z,98072.06
2022-08-05T04:06:26.430Z,98070.13
2022-08-05T04:07:29.167Z,98060.47
2022-08-05T04:08:36.827Z,98063.91
2022-08-05T04:09:38.698Z,98060.44
2022-08-05T04:10:57.526Z,98057.31
2022-08-05T04:11:59.706Z,98051.84
2022-08-05T04:13:04.233Z,98051.06
2022-08-05T04:14:06.042Z,98046.41
2022-08-05T04:15:09.820Z,98044.81
2022-08-05T04:16:24.191Z,98053.34
2022-08-05T04:17:55.569Z,98050.25
2022-08-05T04:18:54.285Z,98064.16
2022-08-05T04:19:58.729Z,98068.41
2022-08-05T04:21:00.630Z,98084.25
2022-08-05T04:22:09.159Z,98083.84
2022-08-05T04:23:16.159Z,98092.38
2022-08-05T04:24:19.529Z,98102.41
2022-08-05T04:25:56.759Z,98110.91
2022-08-05T04:26:46.729Z,98119.81
2022-08-05T04:27:57.338Z,98122.50
2022-08-05T04:29:07.295Z,98141.44
2022-08-05T04:30:10.148Z,98143.41
2022-08-05T04:31:11.665Z,98152.28
2022-08-05T04:32:13.485Z,98158.50
2022-08-05T04:33:54.573Z,98171.63
2022-08-05T04:34:43.596Z,98165.47
2022-08-05T04:36:16.699Z,98166.63
2022-08-05T04:37:06.709Z,98161.56
2022-08-05T04:38:08.937Z,98174.72
2022-08-05T04:39:10.426Z,98175.88
2022-08-05T04:40:14.513Z,98179.75
2022-08-05T04:41:21.217Z,98183.63
2022-08-05T04:42:38.015Z,98197.59
2022-08-05T04:43:48.183Z,98204.13
2022-08-05T04:44:54.356Z,98198.78
2022-08-05T04:45:55.831Z,98201.94
2022-08-05T04:46:59.329Z,98213.91
2022-08-05T04:48:08.004Z,98216.59
2022-08-05T04:49:18.041Z,98221.66
2022-08-05T04:50:37.354Z,98228.63
2022-08-05T04:51:47.891Z,98230.59
2022-08-05T04:52:51.073Z,98225.97
2022-08-05T04:53:52.713Z,98230.22
2022-08-05T04:54:57.338Z,98224.72
2022-08-05T04:56:14.836Z,98231.31
2022-08-05T04:57:21.002Z,98236.31
2022-08-05T04:58:30.390Z,98235.94
2022-08-05T04:59:38.290Z,98238.16
2022-08-05T05:00:41.601Z,98242.16
2022-08-05T05:02:35.503Z,98248.75
2022-08-05T05:03:06.332Z,98253.34
2022-08-05T05:04:08.103Z,98257.75
2022-08-05T05:05:26.063Z,98263.41
2022-08-05T05:06:36.656Z,98273.91
2022-08-05T05:07:52.740Z,98273.19
2022-08-05T05:08:57.828Z,98274.00
2022-08-05T05:10:02.024Z,98280.75
2022-08-05T05:11:04.377Z,98272.34
2022-08-05T05:12:07.276Z,98275.69
2022-08-05T05:13:14.328Z,98282.81
2022-08-05T05:14:16.198Z,98286.63
2022-08-05T05:16:01.757Z,98288.47
2022-08-05T05:16:39.623Z,98293.03
2022-08-05T05:17:55.679Z,98299.50
2022-08-05T05:19:19.058Z,98305.09
2022-08-05T05:20:20.536Z,98314.38
2022-08-05T05:21:22.081Z,98305.44
2022-08-05T05:22:28.714Z,98302.06
2022-08-05T05:23:39.385Z,98304.44
2022-08-05T05:24:58.604Z,98293.59
2022-08-05T05:26:01.338Z,98299.81
2022-08-05T05:27:03.794Z,98302.56
2022-08-05T05:28:05.450Z,98303.38
2022-08-05T05:29:14.380Z,98295.25
2022-08-05T05:30:29.664Z,98295.94
2022-08-05T05:32:33.022Z,98298.88
2022-08-05T05:33:58.599Z,98297.56
2022-08-05T05:34:56.072Z,98301.00
2022-08-05T05:35:59.239Z,98306.06
2022-08-05T05:37:01.530Z,98302.97
2022-08-05T05:38:09.187Z,98303.88
2022-08-05T05:39:14.627Z,98306.38
2022-08-05T05:40:22.557Z,98313.63
2022-08-05T05:41:40.932Z,98314.13
2022-08-05T05:42:46.980Z,98318.13
2022-08-05T05:43:58.393Z,98309.81
2022-08-05T05:45:02.901Z,98311.88
2022-08-05T05:46:05.308Z,98317.44
2022-08-05T05:47:13.283Z,98314.28
2022-08-05T05:48:27.307Z,98321.47
2022-08-05T05:49:29.426Z,98321.41
2022-08-05T05:50:31.058Z,98331.16
2022-08-05T05:51:49.717Z,98328.19
2022-08-05T05:52:52.447Z,98325.00
2022-08-05T05:53:58.572Z,98332.50
2022-08-05T05:55:05.906Z,98322.63
2022-08-05T05:56:14.626Z,98326.47
2022-08-05T05:57:42.754Z,98333.44
2022-08-05T05:58:49.483Z,98335.56
2022-08-05T05:59:52.438Z,98332.41
2022-08-05T06:00:54.481Z,98331.53
2022-08-05T06:01:57.884Z,98336.81
2022-08-05T06:03:01.476Z,98338.53
2022-08-05T06:04:03.851Z,98339.09
2022-08-05T06:05:10.567Z,98336.53
2022-08-05T06:06:18.547Z,98337.44
2022-08-05T06:07:24.149Z,98345.38
2022-08-05T06:08:43.752Z,98344.38
2022-08-05T06:10:01.338Z,98346.06
2022-08-05T06:11:05.322Z,98347.41
2022-08-05T06:12:09.646Z,98349.97
2022-08-05T06:13:11.393Z,98336.28
2022-08-05T06:14:12.928Z,98332.84
2022-08-05T06:15:23.618Z,98329.28
2022-08-05T06:16:28.597Z,98338.53
2022-08-05T06:17:53.596Z,98325.13
2022-08-05T06:18:55.331Z,98327.53
2022-08-05T06:19:59.584Z,98323.06
2022-08-05T06:21:01.366Z,98319.66
2022-08-05T06:22:04.055Z,98317.63
2022-08-05T06:23:05.581Z,98320.88
2022-08-05T06:24:11.736Z,98320.69
2022-08-05T06:25:25.323Z,98313.38
2022-08-05T06:26:35.987Z,98308.53
2022-08-05T06:28:10.412Z,98306.53
2022-08-05T06:28:59.100Z,98305.56
2022-08-05T06:30:17.828Z,98308.44
2022-08-05T06:31:22.701Z,98317.56
2022-08-05T06:32:32.192Z,98321.81
2022-08-05T06:34:07.195Z,98315.69
2022-08-05T06:34:57.314Z,98326.19
2022-08-05T06:36:04.150Z,98325.28
2022-08-05T06:37:10.952Z,98328.78
2022-08-05T06:38:14.027Z,98322.50
2022-08-05T06:39:17.662Z,98321.59
2022-08-05T06:40:27.979Z,98321.59
2022-08-05T06:41:34.797Z,98327.78
2022-08-05T06:42:42.750Z,98330.91
2022-08-05T06:43:51.570Z,98331.38
2022-08-05T06:45:06.488Z,98330.69
2022-08-05T06:46:10.343Z,98332.94
2022-08-05T06:48:11.746Z,98330.75
2022-08-05T06:48:53.628Z,98324.91
2022-08-05T06:50:01.222Z,98326.09
2022-08-05T06:51:09.644Z,98323.97
2022-08-05T06:52:36.629Z,98328.00
2022-08-05T06:53:39.293Z,98336.47
2022-08-05T06:54:41.138Z,98336.91
2022-08-05T06:55:42.629Z,98330.69
2022-08-05T06:56:54.768Z,98328.38
2022-08-05T06:58:19.821Z,98331.81
2022-08-05T06:59:21.964Z,98330.13
2022-08-05T07:00:24.987Z,98327.97
2022-08-05T07:01:32.045Z,98333.56
2022-08-05T07:02:41.867Z,98342.66
2022-08-05T07:03:43.338Z,98340.03
2022-08-05T07:04:45.566Z,98340.38
2022-08-05T07:05:47.839Z,98351.53
2022-08-05T07:06:51.283Z,98346.38
2022-08-05T07:07:52.753Z,98341.31
2022-08-05T07:08:55.136Z,98345.88
2022-08-05T07:09:58.273Z,98343.34
2022-08-05T07:11:00.312Z,98344.63
2022-08-05T07:12:03.825Z,98339.03
2022-08-05T07:13:05.359Z,98352.25
2022-08-05T07:14:07.204Z,98354.47
2022-08-05T07:15:17.323Z,98344.69
2022-08-05T07:18:01.492Z,98361.75
2022-08-05T07:18:09.556Z,98365.03
2022-08-05T07:19:11.746Z,98361.25
2022-08-05T07:20:32.977Z,98363.28
2022-08-05T07:21:59.531Z,98364.72
2022-08-05T07:22:56.756Z,98359.41
2022-08-05T07:23:58.433Z,98371.34
2022-08-05T07:25:21.975Z,98364.03
2022-08-05T07:26:25.769Z,98366.22
2022-08-05T07:27:58.470Z,98364.69
2022-08-05T07:28:49.120Z,98366.31
2022-08-05T07:30:27.213Z,98363.00
2022-08-05T07:31:12.145Z,98378.72
2022-08-05T07:32:17.154Z,98378.16
2022-08-05T07:33:37.045Z,98385.44
2022-08-05T07:34:42.144Z,98380.25
2022-08-05T07:36:05.158Z,98378.44
2022-08-05T07:37:07.314Z,98377.63
2022-08-05T07:38:32.979Z,98373.88
2022-08-05T07:40:04.411Z,98376.72
2022-08-05T07:41:01.461Z,98377.59
2022-08-05T07:42:18.049Z,98384.28
2022-08-05T07:43:33.163Z,98379.59
2022-08-05T07:44:36.398Z,98371.97
2022-08-05T07:45:57.603Z,98381.34
2022-08-05T07:46:59.848Z,98376.97
2022-08-05T07:48:01.952Z,98381.44
2022-08-05T07:49:06.119Z,98384.53
2022-08-05T07:50:09.869Z,98387.84
2022-08-05T07:51:36.165Z,98386.88
2022-08-05T07:52:38.550Z,98386.66
2022-08-05T07:53:50.427Z,98381.78
2022-08-05T07:54:52.591Z,98382.81
2022-08-05T07:56:05.414Z,98380.91
2022-08-05T07:57:17.965Z,98378.16
2022-08-05T07:58:57.190Z,98382.84
2022-08-05T07:59:51.838Z,98378.63
2022-08-05T08:00:53.432Z,98387.56
2022-08-05T08:01:57.489Z,98391.50
2022-08-05T08:03:13.817Z,98382.13
2022-08-05T08:04:17.058Z,98386.34
2022-08-05T08:05:26.270Z,98392.56
2022-08-05T08:06:28.121Z,98390.34
2022-08-05T08:07:39.452Z,98389.13
2022-08-05T08:08:51.372Z,98383.28
2022-08-05T08:09:55.025Z,98382.38
2022-08-05T08:10:56.743Z,98388.81
2022-08-05T08:12:00.214Z,98384.88
2022-08-05T08:13:05.659Z,98381.88
2022-08-05T08:14:07.442Z,98384.91
2022-08-05T08:15:15.038Z,98385.34
2022-08-05T08:16:34.874Z,98377.81
2022-08-05T08:17:39.149Z,98385.84
2022-08-05T08:18:50.006Z,98383.03
2022-08-05T08:20:20.913Z,98381.78
2022-08-05T08:21:15.775Z,98378.94
2022-08-05T08:22:25.158Z,98378.28
2022-08-05T08:24:01.160Z,98379.72
2022-08-05T08:24:51.841Z,98386.59
2022-08-05T08:26:02.145Z,98384.22
2022-08-05T08:27:07.112Z,98389.56
2022-08-05T08:28:18.303Z,98372.59
2022-08-05T08:30:04.344Z,98374.13
2022-08-05T08:30:51.862Z,98371.84
2022-08-05T08:31:53.567Z,98359.22
2022-08-05T08:32:55.098Z,98369.81
2022-08-05T08:33:56.621Z,98372.78
2022-08-05T08:34:58.791Z,98379.69
2022-08-05T08:36:29.636Z,98378.88
2022-08-05T08:37:22.406Z,98372.53
2022-08-05T08:38:36.114Z,98376.09
2022-08-05T08:39:44.255Z,98368.00
2022-08-05T08:40:51.875Z,98358.50
2022-08-05T08:41:59.637Z,98357.09
2022-08-05T08:45:16.492Z,98354.22
2022-08-05T08:45:17.009Z,98351.25
2022-08-05T08:45:49.454Z,98336.59
2022-08-05T08:46:51.949Z,98341.66
2022-08-05T08:48:07.484Z,98346.97
2022-08-05T08:50:22.457Z,98350.72
2022-08-05T08:51:04.010Z,98347.22
2022-08-05T08:52:13.665Z,98344.81
2022-08-05T08:53:17.049Z,98348.19
2022-08-05T08:54:19.939Z,98351.38
2022-08-05T08:55:32.166Z,98341.19
2022-08-05T08:56:47.793Z,98350.44
2022-08-05T08:57:58.251Z,98342.25
2022-08-05T08:59:01.049Z,98340.91
2022-08-05T09:00:08.153Z,98342.69
2022-08-05T09:01:15.633Z,98339.03
2022-08-05T09:02:21.135Z,98330.81
2022-08-05T09:03:28.798Z,98330.81
2022-08-05T09:04:58.263Z,98326.19
2022-08-05T09:06:08.518Z,98324.13
2022-08-05T09:07:19.617Z,98326.75
2022-08-05T09:08:30.419Z,98321.44
2022-08-05T09:09:35.685Z,98321.91
2022-08-05T09:10:41.269Z,98322.16
2022-08-05T09:11:51.911Z,98332.97
2022-08-05T09:12:56.969Z,98319.47
2022-08-05T09:14:54.396Z,98323.00
2022-08-05T09:15:28.050Z,98319.47
2022-08-05T09:16:32.211Z,98328.44
2022-08-05T09:17:42.660Z,98318.31
2022-08-05T09:18:52.225Z,98317.75
2022-08-05T09:20:02.641Z,98324.44
2022-08-05T09:21:11.698Z,98321.06
2022-08-05T09:22:31.358Z,98314.22
2022-08-05T09:23:37.508Z,98313.88
2022-08-05T09:25:00.953Z,98307.47
2022-08-05T09:26:20.536Z,98306.88
2022-08-05T09:28:05.252Z,98312.06
2022-08-05T09:29:08.924Z,98303.03
2022-08-05T09:30:16.348Z,98313.53
2022-08-05T09:31:43.353Z,98309.47
2022-08-05T09:32:45.900Z,98298.88
2022-08-05T09:34:07.604Z,98294.50
2022-08-05T09:35:26.465Z,98305.72
2022-08-05T09:36:54.837Z,98295.53
2022-08-05T09:38:11.991Z,98296.75
2022-08-05T09:39:22.403Z,98294.19
2022-08-05T09:40:37.042Z,98292.97
2022-08-05T09:42:03.528Z,98299.41
2022-08-05T09:43:05.625Z,98296.00
2022-08-05T09:44:11.101Z,98299.88
2022-08-05T09:46:05.132Z,98292.94
2022-08-05T09:46:35.058Z,98289.31
2022-08-05T09:47:55.147Z,98288.22
2022-08-05T09:49:06.786Z,98285.25
2022-08-05T09:50:09.897Z,98277.00
2022-08-05T09:51:14.834Z,98282.81
2022-08-05T09:52:24.018Z,98283.47
2022-08-05T09:53:54.883Z,98280.03
2022-08-05T09:54:52.631Z,98282.47
2022-08-05T09:56:04.661Z,98283.31
2022-08-05T09:57:06.757Z,98278.34
2022-08-05T09:58:25.751Z,98287.81
2022-08-05T09:59:27.758Z,98287.81
2022-08-05T10:00:30.501Z,98286.41
2022-08-05T10:01:33.572Z,98293.81
2022-08-05T10:02:39.757Z,98289.44
2022-08-05T10:03:58.893Z,98294.00
2022-08-05T10:05:07.922Z,98289.00
2022-08-05T10:06:14.648Z,98286.84
2022-08-05T10:07:20.814Z,98295.78
2022-08-05T10:08:39.195Z,98294.44
2022-08-05T10:10:14.613Z,98292.22
2022-08-05T10:11:17.762Z,98290.56
2022-08-05T10:12:33.366Z,98292.97
2022-08-05T10:13:45.572Z,98293.50
2022-08-05T10:14:49.941Z,98284.28
2022-08-05T10:15:56.226Z,98293.59
2022-08-05T10:17:36.892Z,98278.25
2022-08-05T10:18:37.255Z,98282.47
2022-08-05T10:20:04.488Z,98277.94
2022-08-05T10:21:08.428Z,98284.72
2022-08-05T10:22:15.647Z,98292.97
2022-08-05T10:23:58.754Z,98290.25
2022-08-05T10:24:59.290Z,98284.19
2022-08-05T10:26:06.969Z,98283.56
2022-08-05T10:27:09.857Z,98287.19
2022-08-05T10:28:17.064Z,98284.66
2022-08-05T10:30:05.700Z,98283.13
2022-08-05T10:32:52.645Z,98280.91
2022-08-05T10:32:54.723Z,98273.34
2022-08-05T10:33:30.629Z,98282.41
2022-08-05T10:34:37.121Z,98285.03
2022-08-05T10:35:44.298Z,98279.41
2022-08-05T10:36:46.697Z,98276.53
2022-08-05T10:37:49.404Z,98280.97
2022-08-05T10:39:04.997Z,98275.31
2022-08-05T10:40:27.802Z,98282.50
2022-08-05T10:41:45.192Z,98271.53
2022-08-05T10:42:52.758Z,98271.84
2022-08-05T10:44:05.570Z,98270.78
2022-08-05T10:45:21.410Z,98273.84
2022-08-05T10:46:50.573Z,98269.88
2022-08-05T10:48:31.670Z,98274.47
2022-08-05T10:49:16.594Z,98274.31
2022-08-05T10:50:20.843Z,98279.50
2022-08-05T10:51:59.654Z,98264.25
2022-08-05T10:53:02.494Z,98267.13
2022-08-05T10:54:05.938Z,98267.91
2022-08-05T10:55:27.739Z,98271.06
2022-08-05T10:56:36.453Z,98275.84
2022-08-05T10:57:40.390Z,98281.47
2022-08-05T10:58:50.830Z,98275.38
2022-08-05T11:00:20.207Z,98272.75
2022-08-05T11:01:54.899Z,98278.41
2022-08-05T11:03:23.438Z,98283.91
2022-08-05T11:04:28.075Z,98275.19
2022-08-05T11:05:33.962Z,98273.81
2022-08-05T11:06:59.127Z,98269.25
2022-08-05T11:08:27.527Z,98269.88
2022-08-05T11:09:39.184Z,98264.09
2022-08-05T11:10:57.754Z,98260.44
2022-08-05T11:12:04.022Z,98273.84
2022-08-05T11:13:06.160Z,98269.22
2022-08-05T11:14:08.662Z,98267.69
2022-08-05T11:15:20.805Z,98267.19
2022-08-05T11:16:34.031Z,98275.25
2022-08-05T11:17:56.819Z,98282.06
2022-08-05T11:20:10.754Z,98274.41
2022-08-05T11:20:48.351Z,98279.72
2022-08-05T11:21:50.005Z,98280.34
2022-08-05T11:22:54.006Z,98272.56
2022-08-05T11:24:30.427Z,98276.69
2022-08-05T11:26:05.736Z,98275.56
2022-08-05T11:27:50.114Z,98279.16
2022-08-05T11:28:53.021Z,98282.00
2022-08-05T11:29:59.852Z,98277.84
2022-08-05T11:31:01.338Z,98279.19
2022-08-05T11:32:31.986Z,98276.97
2022-08-05T11:33:53.546Z,98281.47
2022-08-05T11:34:56.355Z,98275.81
2022-08-05T11:36:02.914Z,98282.50
2022-08-05T11:38:30.194Z,98273.44
2022-08-05T11:38:52.428Z,98284.72
2022-08-05T11:40:00.798Z,98281.97
2022-08-05T11:41:35.290Z,98277.69
2022-08-05T11:42:28.695Z,98278.88
2022-08-05T11:44:00.940Z,98271.53
2022-08-05T11:45:00.966Z,98274.69
2022-08-05T11:46:27.420Z,98270.53
2022-08-05T11:47:48.491Z,98268.34
2022-08-05T11:48:46.170Z,98271.25
2022-08-05T11:49:51.181Z,98262.81
2022-08-05T11:50:53.433Z,98260.63
2022-08-05T11:51:57.319Z,98259.91
2022-08-05T11:53:04.979Z,98249.75
2022-08-05T11:54:21.850Z,98262.06
2022-08-05T11:55:36.217Z,98264.31
2022-08-05T11:56:45.199Z,98255.44
2022-08-05T11:58:11.012Z,98256.81
2022-08-05T11:59:21.358Z,98261.25
2022-08-05T12:00:30.729Z,98251.38
2022-08-05T12:01:32.249Z,98255.13
2022-08-05T12:02:36.102Z,98253.59
2022-08-05T12:03:55.792Z,98260.19
2022-08-05T12:04:59.694Z,98254.69
2022-08-05T12:06:06.160Z,98253.34
2022-08-05T12:07:14.813Z,98259.47
2022-08-05T12:08:18.148Z,98256.50
2022-08-05T12:09:52.492Z,98258.38
2022-08-05T12:10:49.458Z,98252.56
2022-08-05T12:11:53.642Z,98252.03
2022-08-05T12:12:59.921Z,98257.38
2022-08-05T12:14:07.003Z,98251.13
2022-08-05T12:15:19.253Z,98251.13
2022-08-05T12:16:45.412Z,98246.06
2022-08-05T12:18:10.100Z,98246.38
2022-08-05T12:20:16.659Z,98246.28
2022-08-05T12:20:33.701Z,98241.31
2022-08-05T12:21:42.737Z,98236.66
2022-08-05T12:22:46.122Z,98241.91
2022-08-05T12:24:08.539Z,98233.66
2022-08-05T12:25:10.099Z,98232.31
2022-08-05T12:26:15.970Z,98228.09
2022-08-05T12:27:25.450Z,98231.47
2022-08-05T12:28:40.066Z,98230.00
2022-08-05T12:29:42.608Z,98234.53
2022-08-05T12:30:57.200Z,98235.81
2022-08-05T12:32:02.257Z,98237.09
2022-08-05T12:33:06.883Z,98233.34
2022-08-05T12:34:30.870Z,98240.38
2022-08-05T12:35:39.569Z,98239.09
2022-08-05T12:36:51.671Z,98232.06
2022-08-05T12:37:53.466Z,98231.59
2022-08-05T12:38:58.403Z,98223.91
2022-08-05T12:40:03.696Z,98228.69
2022-08-05T12:41:13.959Z,98226.13
2022-08-05T12:42:20.380Z,98218.44
2022-08-05T12:43:22.055Z,98228.06
2022-08-05T12:44:33.928Z,98220.38
2022-08-05T12:45:42.769Z,98221.91
2022-08-05T12:46:55.948Z,98222.38
2022-08-05T12:48:01.789Z,98224.16
2022-08-05T12:49:19.282Z,98230.84
2022-08-05T12:50:27.036Z,98223.06
2022-08-05T12:52:12.716Z,98224.03
2022-08-05T12:53:04.952Z,98231.44
2022-08-05T12:54:14.802Z,98233.53
2022-08-05T12:55:32.962Z,98222.41
2022-08-05T12:56:40.750Z,98224.09
2022-08-05T12:58:52.742Z,98225.53
2022-08-05T12:59:46.458Z,98226.00
2022-08-05T13:02:00.179Z,98224.78
2022-08-05T13:02:10.282Z,98227.44
2022-08-05T13:03:14.774Z,98220.78
2022-08-05T13:04:20.880Z,98220.88
2022-08-05T13:05:24.351Z,98230.75
2022-08-05T13:06:41.162Z,98227.91
2022-08-05T13:08:00.614Z,98224.88
2022-08-05T13:09:10.835Z,98224.13
2022-08-05T13:10:19.856Z,98222.50
2022-08-05T13:11:46.937Z,98226.47
2022-08-05T13:12:50.776Z,98226.28
2022-08-05T13:14:05.103Z,98228.63
2022-08-05T13:15:17.981Z,98219.44
2022-08-05T13:16:28.029Z,98219.81
2022-08-05T13:17:31.932Z,98219.38
2022-08-05T13:18:55.312Z,98214.25
2022-08-05T13:20:13.086Z,98225.03
2022-08-05T13:21:20.943Z,98226.97
2022-08-05T13:22:28.155Z,98226.94
2022-08-05T13:23:31.519Z,98222.22
2022-08-05T13:24:57.246Z,98215.75
2022-08-05T13:25:59.321Z,98219.25
2022-08-05T13:27:02.449Z,98216.50
2022-08-05T13:28:04.219Z,98220.50
2022-08-05T13:29:05.978Z,98218.88
2022-08-05T13:30:36.793Z,98219.16
2022-08-05T13:32:03.473Z,98216.78
2022-08-05T13:32:54.124Z,98228.88
2022-08-05T13:34:21.231Z,98224.22
2022-08-05T13:35:22.202Z,98218.31
2022-08-05T13:36:34.811Z,98216.97
2022-08-05T13:37:36.330Z,98217.66
2022-08-05T13:38:38.556Z,98218.94
2022-08-05T13:40:16.090Z,98222.31
2022-08-05T13:41:06.232Z,98225.75
2022-08-05T13:42:14.318Z,98221.06
2022-08-05T13:43:21.869Z,98213.94
2022-08-05T13:44:23.859Z,98218.00
2022-08-05T13:45:33.978Z,98210.97
2022-08-05T13:48:09.598Z,98210.63
2022-08-05T13:49:23.070Z,98209.31
2022-08-05T13:50:25.025Z,98212.25
2022-08-05T13:51:29.394Z,98211.75